Aeroporto :
LOGIN :

Iscrizione | Disclaimer

   EN    FR    IT 

 










Sommario :    VFR   VFR Marginale   IFR   IFR Intensivo   IFR Molto Intensivo
Visibilità : 
Base nubi : 
>= 8 km
>= 3000ft
5 / 8 km
1000 / 3000 ft
1500m / 5 km
500 / 1000 ft
800 / 1500m
200 / 500 ft
< 800m
< 200 ft
Simboli :   Temporali  Nebbia  Neve Forte  Precipitazioni Forti  Vento > 20 kt
SIGMETs :   Varie  Temporali  Ghiacco  Turbolenza  Onda orograficha  Ceneri Vulcaniche






- Altitudine del aeroporto : 170 ft
- Codice IATA : KRP


EKKA - Karup

ULTIMO METAR :
  • 260920Z AUTO 26006KT 9999 NCD 07/06 Q1015 NOSIG

METARs OBSOLETI :
  • 260850Z AUTO 26007KT 9999 FEW051/// 07/06 Q1015 NOSIG
  • 260820Z AUTO 25007KT 9999 SCT041/// SCT054/// 06/06 Q1015 NOSIG
  • 260750Z AUTO 25007KT 9999 BKN031/// 07/06 Q1014 NOSIG
  • 260720Z AUTO 25007KT 9999 FEW038/// BKN057/// 07/06 Q1014 NOSIG
  • 260650Z AUTO 26007KT 9999 BKN020/// 07/06 Q1014 NOSIG

TAF TAF EKKA
Valido dal 26 a 09 ore il 27 a 09 ore UTC


260804Z 2609/2709 29008KT 9999 SCT020
TEMPO 2702/2709 0800 BCFG VV002



MetMap, La meteo Aeronautica in un colpo d'occhio ! - Copyright ORBIFLY Dicembre 2007 - Disclaimer

ORBIFLY MET'MAP TEAM :

Programmazione e sviluppo : Alexandra Zaïnal
Concezione : Baudouin d'Aumeries
Aiuto per la programmazione : Marc-Olivier Méhu
Supporto tecnico e logistico : Manuel Goepfert
Aiuto per la traduzione : Arnaldo La Scala

Contatto : metmap@orbifly.com




FONTI E CREDITI :

   NOAA